TAF and METAR

METAR for General Rivadeneira Airport

SETN 192100Z 27010KT 9999 SCT026 SCT100 28/24 Q1009 A2981
Report created 19. okt 23:00
wind 10 knots from W (270°) visibility > 10km scattered clouds (~50% cover) at 2600 feet scattered clouds (~50% cover) at 10000 feet Temperature 28° with dewpoint at 24° (Humidity 78.97%) Pressure 1009 hPa
No TAF available for General Rivadeneira Airport
General Rivadeneira Airport in Ecuador at 10m

Latest 5 airports